createdAt,value
2022-09-27T00:00:05.302Z,14.24
2022-09-27T00:02:39.031Z,14.05
2022-09-27T00:05:06.162Z,13.99
2022-09-27T00:07:33.228Z,14.29
2022-09-27T00:09:59.969Z,14.04
2022-09-27T00:12:26.730Z,14.11
2022-09-27T00:14:53.415Z,14.12
2022-09-27T00:17:20.089Z,13.97
2022-09-27T00:19:46.755Z,14.07
2022-09-27T00:22:13.501Z,13.81
2022-09-27T00:24:40.152Z,13.73
2022-09-27T00:27:06.844Z,13.82
2022-09-27T00:29:33.663Z,13.76
2022-09-27T00:32:00.540Z,13.77
2022-09-27T00:34:27.354Z,13.82
2022-09-27T00:36:55.593Z,13.64
2022-09-27T00:39:22.283Z,13.68
2022-09-27T00:41:48.991Z,13.67
2022-09-27T00:44:24.873Z,13.61
2022-09-27T00:47:07.917Z,13.63
2022-09-27T00:49:41.410Z,13.71
2022-09-27T00:52:17.745Z,13.59
2022-09-27T00:54:46.661Z,13.68
2022-09-27T00:57:13.410Z,14.03
2022-09-27T00:59:48.801Z,13.89
2022-09-27T01:02:15.823Z,13.88
2022-09-27T01:04:43.500Z,14.03
2022-09-27T01:07:10.171Z,13.93
2022-09-27T01:09:36.906Z,13.66
2022-09-27T01:12:37.165Z,13.81
2022-09-27T01:15:13.357Z,13.79
2022-09-27T01:17:43.635Z,13.95
2022-09-27T01:20:31.403Z,13.90
2022-09-27T01:23:26.904Z,13.73
2022-09-27T01:26:14.611Z,13.78
2022-09-27T01:28:57.435Z,13.55
2022-09-27T01:31:59.576Z,13.41
2022-09-27T01:34:34.620Z,13.46
2022-09-27T01:37:22.610Z,13.45
2022-09-27T01:40:03.069Z,13.38
2022-09-27T01:42:55.763Z,13.31
2022-09-27T01:45:32.895Z,13.66
2022-09-27T01:48:22.316Z,13.83
2022-09-27T01:51:04.532Z,13.87
2022-09-27T01:53:34.883Z,13.96
2022-09-27T01:56:35.183Z,14.06
2022-09-27T01:59:20.255Z,13.88
2022-09-27T02:01:59.864Z,13.65
2022-09-27T02:04:34.035Z,13.64
2022-09-27T02:07:14.814Z,13.77
2022-09-27T02:09:47.994Z,13.69
2022-09-27T02:12:21.908Z,13.88
2022-09-27T02:14:54.608Z,14.04
2022-09-27T02:17:33.212Z,14.03
2022-09-27T02:20:40.320Z,13.72
2022-09-27T02:23:23.262Z,13.59
2022-09-27T02:26:00.637Z,13.69
2022-09-27T02:28:31.268Z,13.60
2022-09-27T02:30:58.275Z,13.37
2022-09-27T02:33:35.294Z,13.44
2022-09-27T02:36:02.406Z,13.60
2022-09-27T02:38:29.575Z,13.73
2022-09-27T02:40:58.323Z,13.70
2022-09-27T02:43:29.708Z,13.93
2022-09-27T02:46:20.595Z,13.96
2022-09-27T02:49:04.111Z,13.79
2022-09-27T02:51:49.555Z,13.64
2022-09-27T02:54:26.773Z,13.72
2022-09-27T02:57:35.236Z,13.79
2022-09-27T03:00:44.783Z,13.56
2022-09-27T03:03:52.759Z,13.45
2022-09-27T03:06:21.024Z,13.50
2022-09-27T03:08:47.959Z,13.77
2022-09-27T03:11:14.873Z,13.81
2022-09-27T03:14:06.965Z,13.96
2022-09-27T03:16:31.306Z,13.87
2022-09-27T03:19:10.458Z,14.17
2022-09-27T03:22:00.496Z,13.84
2022-09-27T03:24:27.649Z,13.90
2022-09-27T03:26:54.302Z,13.71
2022-09-27T03:29:20.994Z,13.69
2022-09-27T03:31:53.459Z,13.39
2022-09-27T03:34:39.908Z,13.31
2022-09-27T03:37:07.262Z,13.36
2022-09-27T03:39:34.584Z,13.67
2022-09-27T03:42:01.254Z,13.67
2022-09-27T03:44:28.070Z,13.38
2022-09-27T03:46:54.727Z,13.48
2022-09-27T03:49:21.454Z,13.63
2022-09-27T03:51:48.161Z,13.53
2022-09-27T03:54:15.331Z,13.58
2022-09-27T03:56:41.987Z,13.47
2022-09-27T03:59:08.701Z,13.41
2022-09-27T04:01:56.402Z,13.24
2022-09-27T04:04:43.513Z,13.64
2022-09-27T04:07:10.793Z,13.70
2022-09-27T04:09:41.241Z,13.38
2022-09-27T04:12:11.777Z,13.41
2022-09-27T04:14:38.558Z,13.50
2022-09-27T04:17:25.809Z,13.83
2022-09-27T04:20:11.662Z,13.98
2022-09-27T04:22:44.181Z,13.91
2022-09-27T04:25:11.645Z,13.77
2022-09-27T04:27:45.620Z,13.55
2022-09-27T04:30:13.282Z,13.44
2022-09-27T04:32:58.458Z,13.44
2022-09-27T04:36:12.921Z,13.41
2022-09-27T04:38:48.176Z,13.36
2022-09-27T04:41:21.980Z,13.24
2022-09-27T04:43:48.671Z,13.48
2022-09-27T04:46:15.867Z,13.68
2022-09-27T04:48:42.855Z,13.66
2022-09-27T04:51:10.219Z,13.63
2022-09-27T04:53:37.088Z,13.44
2022-09-27T04:56:06.076Z,13.48
2022-09-27T04:58:34.391Z,13.46
2022-09-27T05:01:03.619Z,13.11
2022-09-27T05:03:49.019Z,13.14
2022-09-27T05:06:16.155Z,13.08
2022-09-27T05:08:43.417Z,13.08
2022-09-27T05:11:19.073Z,13.20
2022-09-27T05:14:05.532Z,12.73
2022-09-27T05:16:40.683Z,12.60
2022-09-27T05:19:36.552Z,12.39
2022-09-27T05:22:11.673Z,12.35
2022-09-27T05:24:39.341Z,12.55
2022-09-27T05:27:08.745Z,12.45
2022-09-27T05:29:35.769Z,12.53
2022-09-27T05:32:25.288Z,12.58
2022-09-27T05:35:06.242Z,12.65
2022-09-27T05:37:34.265Z,12.51
2022-09-27T05:40:08.526Z,12.57
2022-09-27T05:42:43.885Z,12.90
2022-09-27T05:45:10.851Z,12.76
2022-09-27T05:47:37.540Z,12.68
2022-09-27T05:50:04.370Z,12.46
2022-09-27T05:52:31.069Z,12.58
2022-09-27T05:54:58.444Z,12.81
2022-09-27T05:57:25.244Z,12.66
2022-09-27T05:59:54.211Z,12.73
2022-09-27T06:02:21.015Z,13.06
2022-09-27T06:05:09.288Z,12.93
2022-09-27T06:07:41.982Z,12.86
2022-09-27T06:10:14.911Z,13.22
2022-09-27T06:12:42.367Z,12.86
2022-09-27T06:15:21.965Z,13.09
2022-09-27T06:17:48.687Z,12.86
2022-09-27T06:20:21.411Z,12.67
2022-09-27T06:22:48.363Z,12.52
2022-09-27T06:25:18.720Z,12.56
2022-09-27T06:28:12.152Z,12.53
2022-09-27T06:30:41.527Z,12.57
2022-09-27T06:33:23.022Z,12.24
2022-09-27T06:35:51.542Z,12.32
2022-09-27T06:38:21.270Z,12.28
2022-09-27T06:41:03.636Z,12.38
2022-09-27T06:43:38.621Z,12.61
2022-09-27T06:46:14.116Z,12.80
2022-09-27T06:48:49.751Z,12.53
2022-09-27T06:51:18.562Z,12.52
2022-09-27T06:53:45.291Z,12.52
2022-09-27T06:56:12.745Z,12.46
2022-09-27T06:59:07.152Z,12.51
2022-09-27T07:01:53.940Z,12.46
2022-09-27T07:04:26.553Z,12.54
2022-09-27T07:07:13.987Z,12.49
2022-09-27T07:09:44.801Z,12.31
2022-09-27T07:12:13.652Z,12.48
2022-09-27T07:14:44.140Z,12.44
2022-09-27T07:17:14.135Z,12.66
2022-09-27T07:19:43.904Z,12.54
2022-09-27T07:22:11.946Z,12.43
2022-09-27T07:24:40.309Z,12.44
2022-09-27T07:27:07.154Z,12.69
2022-09-27T07:29:34.117Z,12.60
2022-09-27T07:32:01.367Z,12.69
2022-09-27T07:34:28.278Z,12.51
2022-09-27T07:37:03.473Z,12.47
2022-09-27T07:39:32.265Z,12.40
2022-09-27T07:42:02.468Z,12.47
2022-09-27T07:44:29.159Z,12.77
2022-09-27T07:47:14.119Z,12.82
2022-09-27T07:49:59.239Z,12.72
2022-09-27T07:52:46.553Z,12.70
2022-09-27T07:55:32.382Z,12.84
2022-09-27T07:58:12.372Z,13.02
2022-09-27T08:00:40.944Z,12.94
2022-09-27T08:03:16.260Z,12.90
2022-09-27T08:05:44.676Z,13.12
2022-09-27T08:08:11.828Z,13.34
2022-09-27T08:10:42.318Z,13.41
2022-09-27T08:13:09.224Z,12.93
2022-09-27T08:15:39.258Z,13.01
2022-09-27T08:18:07.917Z,13.02
2022-09-27T08:21:10.198Z,12.91
2022-09-27T08:23:50.315Z,12.85
2022-09-27T08:26:23.663Z,12.84
2022-09-27T08:28:53.532Z,13.09
2022-09-27T08:31:25.673Z,13.20
2022-09-27T08:33:55.109Z,13.25
2022-09-27T08:36:24.320Z,13.22
2022-09-27T08:38:51.870Z,13.32
2022-09-27T08:41:39.986Z,13.27
2022-09-27T08:44:30.163Z,13.18
2022-09-27T08:47:17.380Z,13.26
2022-09-27T08:50:10.451Z,12.99
2022-09-27T08:52:43.728Z,12.99
2022-09-27T08:55:28.986Z,12.85
2022-09-27T08:57:57.850Z,13.00
2022-09-27T09:00:28.175Z,13.04
2022-09-27T09:02:57.214Z,13.27
2022-09-27T09:05:31.000Z,13.07
2022-09-27T09:08:18.464Z,13.10
2022-09-27T09:11:08.383Z,13.23
2022-09-27T09:13:53.947Z,13.33
2022-09-27T09:16:47.447Z,13.28
2022-09-27T09:20:12.233Z,13.22
2022-09-27T09:23:00.741Z,13.27
2022-09-27T09:25:46.109Z,13.58
2022-09-27T09:28:54.283Z,13.68
2022-09-27T09:31:48.050Z,13.86
2022-09-27T09:34:23.211Z,13.63
2022-09-27T09:36:57.319Z,13.50
2022-09-27T09:39:28.944Z,13.53
2022-09-27T09:42:05.054Z,13.66
2022-09-27T09:44:41.503Z,13.60
2022-09-27T09:47:15.768Z,13.55
2022-09-27T09:49:48.583Z,13.59
2022-09-27T09:52:20.948Z,13.62
2022-09-27T09:55:04.368Z,13.86
2022-09-27T09:57:39.187Z,13.77
2022-09-27T10:00:15.544Z,13.70
2022-09-27T10:02:50.125Z,13.75
2022-09-27T10:05:22.537Z,13.63
2022-09-27T10:07:59.382Z,13.86
2022-09-27T10:10:26.216Z,13.90
2022-09-27T10:13:04.829Z,13.95
2022-09-27T10:15:36.985Z,13.95
2022-09-27T10:18:04.350Z,14.15
2022-09-27T10:20:40.227Z,14.28
2022-09-27T10:23:15.498Z,14.36
2022-09-27T10:26:00.780Z,14.34
2022-09-27T10:28:39.200Z,14.43
2022-09-27T10:31:18.345Z,14.35
2022-09-27T10:33:59.946Z,14.56
2022-09-27T10:36:36.668Z,14.62
2022-09-27T10:39:05.732Z,14.64
2022-09-27T10:41:42.023Z,14.68
2022-09-27T10:44:16.142Z,14.95
2022-09-27T10:46:45.370Z,14.97
2022-09-27T10:49:37.090Z,15.09
2022-09-27T10:52:22.896Z,15.10
2022-09-27T10:54:54.757Z,15.17
2022-09-27T10:57:27.117Z,15.25
2022-09-27T10:59:59.445Z,15.28
2022-09-27T11:02:31.142Z,15.20
2022-09-27T11:05:15.254Z,15.25
2022-09-27T11:07:53.067Z,15.19
2022-09-27T11:10:42.446Z,15.21
2022-09-27T11:13:13.214Z,15.38
2022-09-27T11:16:41.696Z,15.40
2022-09-27T11:19:30.593Z,15.40
2022-09-27T11:22:16.743Z,15.32
2022-09-27T11:24:48.508Z,15.17
2022-09-27T11:27:47.944Z,14.87
2022-09-27T11:30:21.491Z,14.77
2022-09-27T11:33:20.483Z,14.71
2022-09-27T11:35:59.968Z,14.62
2022-09-27T11:39:12.451Z,14.70
2022-09-27T11:41:45.082Z,14.60
2022-09-27T11:44:21.362Z,14.55
2022-09-27T11:46:57.588Z,14.58
2022-09-27T11:49:43.541Z,14.69
2022-09-27T11:52:20.877Z,14.49
2022-09-27T11:55:09.490Z,14.57
2022-09-27T11:57:44.964Z,14.59
2022-09-27T12:00:24.308Z,14.50
2022-09-27T12:03:38.246Z,14.61
2022-09-27T12:06:13.762Z,14.70
2022-09-27T12:09:06.898Z,14.75
2022-09-27T12:11:46.228Z,14.74
2022-09-27T12:14:37.848Z,14.57
2022-09-27T12:17:13.146Z,14.48
2022-09-27T12:19:48.606Z,14.57
2022-09-27T12:22:53.847Z,14.62
2022-09-27T12:25:20.823Z,14.70
2022-09-27T12:28:00.310Z,14.60
2022-09-27T12:30:27.265Z,14.74
2022-09-27T12:33:06.342Z,14.79
2022-09-27T12:35:40.139Z,14.82
2022-09-27T12:38:14.752Z,14.73
2022-09-27T12:40:45.520Z,14.86
2022-09-27T12:43:19.777Z,14.99
2022-09-27T12:46:17.944Z,15.11
2022-09-27T12:48:50.772Z,15.31
2022-09-27T12:51:22.384Z,15.31
2022-09-27T12:54:12.701Z,15.29
2022-09-27T12:56:57.099Z,15.37
2022-09-27T12:59:54.046Z,15.42
2022-09-27T13:03:14.582Z,15.40
2022-09-27T13:05:58.687Z,15.11
2022-09-27T13:08:34.483Z,15.21
2022-09-27T13:11:12.750Z,15.39
2022-09-27T13:13:40.014Z,15.37
2022-09-27T13:16:09.581Z,15.38
2022-09-27T13:18:54.102Z,15.39
2022-09-27T13:21:49.281Z,15.34
2022-09-27T13:24:39.389Z,15.29
2022-09-27T13:27:23.570Z,15.41
2022-09-27T13:29:51.544Z,15.44
2022-09-27T13:32:23.342Z,15.45
2022-09-27T13:35:24.700Z,15.46
2022-09-27T13:38:07.135Z,15.52
2022-09-27T13:40:42.157Z,15.49
2022-09-27T13:43:12.112Z,15.39
2022-09-27T13:46:08.027Z,15.24
2022-09-27T13:48:50.713Z,14.84
2022-09-27T13:51:35.828Z,14.86
2022-09-27T13:54:27.327Z,15.02
2022-09-27T13:56:56.282Z,14.99
2022-09-27T13:59:49.307Z,14.69
2022-09-27T14:02:41.822Z,14.87
2022-09-27T14:05:13.001Z,14.67
2022-09-27T14:07:42.031Z,14.76
2022-09-27T14:10:18.393Z,14.77
2022-09-27T14:12:46.444Z,14.86
2022-09-27T14:15:19.994Z,14.88
2022-09-27T14:17:47.148Z,14.93
2022-09-27T14:20:38.522Z,15.01
2022-09-27T14:23:16.101Z,15.07
2022-09-27T14:25:51.094Z,14.96
2022-09-27T14:28:27.706Z,15.02
2022-09-27T14:31:17.902Z,15.03
2022-09-27T14:34:08.994Z,14.98
2022-09-27T14:36:56.613Z,14.98
2022-09-27T14:39:32.672Z,14.89
2022-09-27T14:42:05.636Z,15.00
2022-09-27T14:44:33.451Z,14.98
2022-09-27T14:47:20.284Z,15.02
2022-09-27T14:49:48.944Z,15.04
2022-09-27T14:52:28.595Z,15.07
2022-09-27T14:55:00.253Z,15.05
2022-09-27T14:57:30.276Z,14.98
2022-09-27T14:59:58.273Z,15.02
2022-09-27T15:02:26.482Z,14.96
2022-09-27T15:04:53.801Z,14.97
2022-09-27T15:07:22.455Z,14.94
2022-09-27T15:09:50.660Z,14.96
2022-09-27T15:12:23.418Z,14.96
2022-09-27T15:14:54.018Z,14.99
2022-09-27T15:17:21.873Z,15.01
2022-09-27T15:20:04.155Z,14.81
2022-09-27T15:22:43.965Z,14.71
2022-09-27T15:25:32.654Z,14.83
2022-09-27T15:28:20.561Z,14.62
2022-09-27T15:30:54.787Z,14.58
2022-09-27T15:33:25.068Z,14.53
2022-09-27T15:35:54.323Z,14.49
2022-09-27T15:38:26.275Z,14.63
2022-09-27T15:40:52.943Z,14.60
2022-09-27T15:43:36.008Z,14.53
2022-09-27T15:46:26.031Z,14.59
2022-09-27T15:49:18.137Z,14.39
2022-09-27T15:51:46.248Z,14.36
2022-09-27T15:54:13.277Z,14.35
2022-09-27T15:56:40.347Z,14.07
2022-09-27T15:59:09.401Z,14.15
2022-09-27T16:01:36.246Z,14.25
2022-09-27T16:04:02.955Z,14.26
2022-09-27T16:06:30.473Z,14.28
2022-09-27T16:08:57.302Z,14.29
2022-09-27T16:11:24.020Z,14.28
2022-09-27T16:13:53.008Z,14.28
2022-09-27T16:16:22.918Z,14.17
2022-09-27T16:18:50.104Z,14.20
2022-09-27T16:21:16.903Z,14.22
2022-09-27T16:23:43.762Z,14.21
2022-09-27T16:26:11.567Z,14.20
2022-09-27T16:28:38.340Z,14.18
2022-09-27T16:31:06.495Z,14.13
2022-09-27T16:33:33.871Z,14.10
2022-09-27T16:36:03.669Z,14.06
2022-09-27T16:38:30.469Z,14.04
2022-09-27T16:41:02.502Z,13.98
2022-09-27T16:43:31.963Z,13.92
2022-09-27T16:46:11.904Z,13.89
2022-09-27T16:48:39.529Z,13.84
2022-09-27T16:51:27.947Z,13.81
2022-09-27T16:53:54.656Z,13.77
2022-09-27T16:56:21.669Z,13.73
2022-09-27T16:58:48.344Z,13.72
2022-09-27T17:01:17.088Z,13.69
2022-09-27T17:03:45.539Z,13.65
2022-09-27T17:06:12.705Z,13.63
2022-09-27T17:08:39.440Z,13.59
2022-09-27T17:11:07.504Z,13.57
2022-09-27T17:13:34.330Z,13.52
2022-09-27T17:16:03.984Z,13.48
2022-09-27T17:18:31.027Z,13.47
2022-09-27T17:21:02.971Z,13.43
2022-09-27T17:23:33.567Z,13.38
2022-09-27T17:26:17.105Z,13.32
2022-09-27T17:28:44.035Z,13.28
2022-09-27T17:31:15.324Z,13.22
2022-09-27T17:33:45.335Z,13.18
2022-09-27T17:36:37.541Z,13.14
2022-09-27T17:39:05.252Z,13.11
2022-09-27T17:41:37.568Z,13.06
2022-09-27T17:44:07.440Z,13.03
2022-09-27T17:46:35.909Z,13.02
2022-09-27T17:49:21.932Z,13.01
2022-09-27T17:51:53.235Z,13.00
2022-09-27T17:54:23.436Z,13.00
2022-09-27T17:56:51.042Z,12.99
2022-09-27T17:59:18.280Z,12.98
2022-09-27T18:01:55.645Z,12.97
2022-09-27T18:04:26.045Z,12.96
2022-09-27T18:06:52.874Z,12.95
2022-09-27T18:09:19.881Z,12.94
2022-09-27T18:11:47.881Z,12.94
2022-09-27T18:14:15.345Z,12.94
2022-09-27T18:16:43.957Z,12.89
2022-09-27T18:19:16.910Z,12.86
2022-09-27T18:21:44.340Z,12.86
2022-09-27T18:24:11.997Z,12.82
2022-09-27T18:26:39.925Z,12.78
2022-09-27T18:29:10.261Z,12.77
2022-09-27T18:31:37.611Z,12.76
2022-09-27T18:34:05.316Z,12.71
2022-09-27T18:36:32.171Z,12.66
2022-09-27T18:39:03.477Z,12.63
2022-09-27T18:41:32.759Z,12.54
2022-09-27T18:44:01.805Z,12.57
2022-09-27T18:46:35.515Z,12.49
2022-09-27T18:49:07.949Z,12.48
2022-09-27T18:51:37.923Z,12.48
2022-09-27T18:54:07.284Z,12.44
2022-09-27T18:56:39.595Z,12.42
2022-09-27T18:59:08.928Z,12.41
2022-09-27T19:01:39.793Z,12.37
2022-09-27T19:04:10.683Z,12.32
2022-09-27T19:06:38.819Z,12.29
2022-09-27T19:09:06.812Z,12.24
2022-09-27T19:11:34.249Z,12.19
2022-09-27T19:14:01.755Z,12.17
2022-09-27T19:16:29.419Z,12.10
2022-09-27T19:18:56.291Z,12.04
2022-09-27T19:21:25.373Z,12.02
2022-09-27T19:23:52.514Z,12.03
2022-09-27T19:26:21.803Z,12.01
2022-09-27T19:28:49.776Z,12.00
2022-09-27T19:31:22.854Z,12.01
2022-09-27T19:33:49.933Z,11.99
2022-09-27T19:36:17.990Z,11.97
2022-09-27T19:38:45.586Z,11.97
2022-09-27T19:41:14.924Z,11.96
2022-09-27T19:43:42.064Z,11.93
2022-09-27T19:46:15.694Z,11.87
2022-09-27T19:48:43.652Z,11.87
2022-09-27T19:51:19.313Z,11.82
2022-09-27T19:53:46.372Z,11.76
2022-09-27T19:56:13.679Z,11.73
2022-09-27T19:58:42.258Z,11.75
2022-09-27T20:01:19.377Z,11.73
2022-09-27T20:03:46.862Z,11.69
2022-09-27T20:06:15.525Z,11.70
2022-09-27T20:08:42.858Z,11.68
2022-09-27T20:11:12.191Z,11.65
2022-09-27T20:13:39.629Z,11.59
2022-09-27T20:16:18.709Z,11.60
2022-09-27T20:18:47.604Z,11.57
2022-09-27T20:21:15.355Z,11.50
2022-09-27T20:23:42.579Z,11.48
2022-09-27T20:26:13.485Z,11.44
2022-09-27T20:28:44.631Z,11.42
2022-09-27T20:31:16.259Z,11.42
2022-09-27T20:33:46.897Z,11.40
2022-09-27T20:36:21.701Z,11.38
2022-09-27T20:38:50.616Z,11.40
2022-09-27T20:41:20.479Z,11.42
2022-09-27T20:43:48.705Z,11.45
2022-09-27T20:46:17.246Z,11.45
2022-09-27T20:48:45.142Z,11.47
2022-09-27T20:51:16.461Z,11.47
2022-09-27T20:53:45.193Z,11.47
2022-09-27T20:56:25.515Z,11.48
2022-09-27T20:58:53.804Z,11.49
2022-09-27T21:01:22.003Z,11.47
2022-09-27T21:03:53.303Z,11.46
2022-09-27T21:06:23.026Z,11.46
2022-09-27T21:08:50.731Z,11.45
2022-09-27T21:11:18.056Z,11.42
2022-09-27T21:13:45.682Z,11.40
2022-09-27T21:16:14.942Z,11.40
2022-09-27T21:18:42.005Z,11.38
2022-09-27T21:21:10.687Z,11.36
2022-09-27T21:23:43.460Z,11.37
2022-09-27T21:26:16.664Z,11.39
2022-09-27T21:28:44.477Z,11.37
2022-09-27T21:31:15.701Z,11.38
2022-09-27T21:33:51.346Z,11.39
2022-09-27T21:36:18.064Z,11.40
2022-09-27T21:38:44.745Z,11.39
2022-09-27T21:41:14.738Z,11.40
2022-09-27T21:43:42.000Z,11.38
2022-09-27T21:46:10.289Z,11.33
2022-09-27T21:48:38.819Z,11.35
2022-09-27T21:51:10.036Z,11.38
2022-09-27T21:53:38.405Z,11.38
2022-09-27T21:56:05.996Z,11.38
2022-09-27T21:58:37.664Z,11.35
2022-09-27T22:01:12.468Z,11.34
2022-09-27T22:03:40.384Z,11.33
2022-09-27T22:06:09.902Z,11.32
2022-09-27T22:08:36.835Z,11.28
2022-09-27T22:11:04.149Z,11.28
2022-09-27T22:13:30.975Z,11.23
2022-09-27T22:16:02.670Z,11.22
2022-09-27T22:18:29.424Z,11.21
2022-09-27T22:21:03.998Z,11.21
2022-09-27T22:23:31.227Z,11.21
2022-09-27T22:25:58.536Z,11.19
2022-09-27T22:28:26.064Z,11.20
2022-09-27T22:30:53.064Z,11.18
2022-09-27T22:33:19.769Z,11.14
2022-09-27T22:35:47.420Z,11.12
2022-09-27T22:38:14.358Z,11.10
2022-09-27T22:40:42.201Z,11.10
2022-09-27T22:43:08.980Z,11.10
2022-09-27T22:45:35.637Z,11.09
2022-09-27T22:48:02.326Z,11.10
2022-09-27T22:50:28.974Z,11.12
2022-09-27T22:52:55.636Z,11.11
2022-09-27T22:55:22.383Z,11.15
2022-09-27T22:57:49.053Z,11.12
2022-09-27T23:00:15.782Z,11.14
2022-09-27T23:02:42.475Z,11.14
2022-09-27T23:05:09.335Z,11.07
2022-09-27T23:07:35.967Z,11.07
2022-09-27T23:10:02.733Z,11.06
2022-09-27T23:12:29.430Z,11.13
2022-09-27T23:14:57.419Z,11.16
2022-09-27T23:17:24.118Z,11.17
2022-09-27T23:19:50.774Z,11.19
2022-09-27T23:22:17.445Z,11.19
2022-09-27T23:24:44.132Z,11.19
2022-09-27T23:27:29.483Z,11.15
2022-09-27T23:29:56.209Z,11.18
2022-09-27T23:32:22.858Z,11.06
2022-09-27T23:34:49.909Z,11.06
2022-09-27T23:37:16.564Z,11.15
2022-09-27T23:39:43.279Z,11.19
2022-09-27T23:42:10.055Z,11.20
2022-09-27T23:44:36.759Z,11.21
2022-09-27T23:47:04.368Z,11.19
2022-09-27T23:49:32.299Z,11.23
2022-09-27T23:52:00.813Z,11.26
2022-09-27T23:54:28.043Z,11.25
2022-09-27T23:56:54.789Z,11.30
2022-09-27T23:59:21.499Z,11.18
